createdAt,value
2019-05-10T00:00:53.150Z,99.60
2019-05-10T00:03:40.216Z,99.90
2019-05-10T00:06:27.536Z,99.90
2019-05-10T00:09:15.153Z,99.90
2019-05-10T00:12:01.887Z,99.90
2019-05-10T00:14:59.401Z,99.90
2019-05-10T00:17:30.617Z,99.90
2019-05-10T00:20:01.609Z,99.90
2019-05-10T00:22:31.796Z,99.90
2019-05-10T00:25:04.726Z,99.90
2019-05-10T00:27:35.340Z,99.90
2019-05-10T00:30:05.813Z,99.90
2019-05-10T00:32:35.432Z,99.90
2019-05-10T00:35:05.778Z,99.90
2019-05-10T00:37:35.492Z,99.90
2019-05-10T00:40:10.302Z,99.90
2019-05-10T00:42:44.335Z,99.90
2019-05-10T00:45:15.471Z,99.90
2019-05-10T00:47:45.333Z,99.90
2019-05-10T00:50:16.103Z,99.90
2019-05-10T00:52:45.688Z,99.90
2019-05-10T00:55:18.923Z,99.90
2019-05-10T00:57:47.851Z,99.90
2019-05-10T01:00:18.758Z,99.90
2019-05-10T01:02:48.456Z,99.90
2019-05-10T01:05:18.172Z,99.90
2019-05-10T01:07:49.218Z,99.90
2019-05-10T01:10:25.063Z,99.90
2019-05-10T01:12:55.389Z,99.90
2019-05-10T01:15:26.520Z,99.90
2019-05-10T01:17:58.623Z,99.90
2019-05-10T01:20:30.409Z,99.90
2019-05-10T01:23:02.557Z,99.90
2019-05-10T01:25:36.603Z,99.90
2019-05-10T01:28:06.373Z,99.90
2019-05-10T01:30:36.171Z,99.90
2019-05-10T01:33:07.466Z,99.90
2019-05-10T01:35:40.407Z,99.90
2019-05-10T01:38:11.222Z,99.90
2019-05-10T01:40:43.992Z,99.90
2019-05-10T01:43:17.713Z,99.90
2019-05-10T01:45:53.408Z,99.90
2019-05-10T01:48:21.553Z,99.90
2019-05-10T01:50:55.954Z,99.90
2019-05-10T01:53:29.673Z,99.90
2019-05-10T01:56:04.101Z,99.90
2019-05-10T01:58:33.784Z,99.90
2019-05-10T02:01:07.626Z,99.90
2019-05-10T02:03:37.497Z,99.90
2019-05-10T02:06:09.233Z,99.90
2019-05-10T02:08:39.946Z,99.90
2019-05-10T02:11:12.614Z,99.90
2019-05-10T02:13:43.465Z,99.90
2019-05-10T02:16:13.137Z,99.90
2019-05-10T02:18:43.949Z,99.90
2019-05-10T02:21:15.397Z,99.90
2019-05-10T02:24:09.283Z,99.90
2019-05-10T02:26:18.133Z,99.90
2019-05-10T02:28:49.974Z,99.90
2019-05-10T02:31:24.339Z,99.90
2019-05-10T02:33:53.627Z,99.90
2019-05-10T02:36:29.419Z,99.90
2019-05-10T02:39:03.767Z,99.90
2019-05-10T02:41:36.487Z,99.90
2019-05-10T02:44:12.784Z,99.90
2019-05-10T02:46:42.564Z,99.90
2019-05-10T02:49:13.708Z,99.90
2019-05-10T02:51:43.487Z,99.90
2019-05-10T02:54:16.177Z,99.90
2019-05-10T02:56:47.618Z,99.90
2019-05-10T02:59:19.480Z,99.90
2019-05-10T03:01:50.094Z,99.90
2019-05-10T03:04:22.787Z,99.90
2019-05-10T03:07:00.920Z,99.90
2019-05-10T03:09:48.215Z,99.90
2019-05-10T03:12:25.469Z,99.90
2019-05-10T03:15:08.429Z,99.90
2019-05-10T03:17:42.238Z,99.90
2019-05-10T03:20:16.307Z,99.90
2019-05-10T03:22:47.981Z,99.90
2019-05-10T03:25:17.365Z,99.90
2019-05-10T03:27:49.452Z,99.90
2019-05-10T03:30:19.502Z,99.90
2019-05-10T03:32:51.459Z,99.90
2019-05-10T03:35:29.965Z,99.90
2019-05-10T03:37:59.490Z,99.90
2019-05-10T03:40:31.018Z,99.90
2019-05-10T03:43:03.174Z,99.90
2019-05-10T03:45:35.709Z,99.90
2019-05-10T03:48:10.685Z,99.90
2019-05-10T03:50:41.203Z,99.90
2019-05-10T03:53:12.792Z,99.90
2019-05-10T03:55:48.876Z,99.90
2019-05-10T03:58:17.049Z,99.90
2019-05-10T04:00:49.072Z,99.90
2019-05-10T04:03:20.340Z,99.90
2019-05-10T04:05:49.969Z,99.90
2019-05-10T04:08:22.947Z,99.90
2019-05-10T04:10:53.940Z,99.90
2019-05-10T04:13:28.019Z,99.90
2019-05-10T04:16:02.958Z,99.90
2019-05-10T04:18:37.433Z,99.90
2019-05-10T04:21:18.061Z,99.90
2019-05-10T04:23:45.977Z,99.90
2019-05-10T04:26:18.974Z,99.90
2019-05-10T04:28:49.913Z,99.90
2019-05-10T04:31:25.320Z,99.90
2019-05-10T04:33:56.067Z,99.90
2019-05-10T04:36:28.823Z,99.90
2019-05-10T04:39:01.667Z,99.90
2019-05-10T04:41:38.095Z,99.90
2019-05-10T04:44:10.695Z,99.90
2019-05-10T04:46:40.034Z,99.90
2019-05-10T04:49:16.917Z,99.90
2019-05-10T04:51:46.580Z,99.90
2019-05-10T04:54:18.544Z,99.90
2019-05-10T04:56:53.297Z,99.90
2019-05-10T04:59:25.935Z,99.90
2019-05-10T05:02:00.497Z,99.90
2019-05-10T05:04:33.854Z,99.90
2019-05-10T05:07:04.860Z,99.90
2019-05-10T05:09:37.730Z,99.90
2019-05-10T05:12:15.535Z,99.90
2019-05-10T05:14:57.709Z,99.90
2019-05-10T05:17:55.109Z,99.90
2019-05-10T05:20:24.556Z,99.90
2019-05-10T05:22:56.158Z,99.90
2019-05-10T05:25:35.101Z,99.90
2019-05-10T05:28:11.930Z,99.90
2019-05-10T05:30:44.626Z,99.90
2019-05-10T05:33:16.495Z,99.90
2019-05-10T05:35:54.776Z,99.90
2019-05-10T05:38:31.493Z,99.90
2019-05-10T05:41:51.778Z,99.90
2019-05-10T05:43:45.816Z,99.90
2019-05-10T05:46:14.803Z,99.90
2019-05-10T05:48:59.223Z,99.90
2019-05-10T05:51:41.431Z,99.90
2019-05-10T05:54:20.836Z,99.90
2019-05-10T05:57:38.728Z,99.90
2019-05-10T05:59:49.855Z,99.90
2019-05-10T06:02:44.748Z,99.90
2019-05-10T06:04:54.509Z,99.90
2019-05-10T06:07:31.089Z,99.90
2019-05-10T06:10:22.611Z,99.90
2019-05-10T06:12:54.837Z,99.90
2019-05-10T06:15:29.320Z,99.90
2019-05-10T06:18:09.493Z,99.90
2019-05-10T06:20:44.637Z,99.90
2019-05-10T06:23:12.970Z,99.90
2019-05-10T06:25:49.549Z,99.90
2019-05-10T06:28:57.405Z,99.90
2019-05-10T06:31:13.025Z,99.90
2019-05-10T06:33:39.622Z,99.90
2019-05-10T06:36:10.877Z,99.90
2019-05-10T06:38:55.517Z,99.90
2019-05-10T06:41:39.886Z,99.90
2019-05-10T06:44:11.444Z,99.90
2019-05-10T06:47:02.289Z,99.90
2019-05-10T06:49:54.432Z,99.90
2019-05-10T06:52:39.908Z,99.90
2019-05-10T06:55:01.402Z,99.90
2019-05-10T06:57:38.366Z,99.90
2019-05-10T07:00:13.681Z,99.90
2019-05-10T07:02:45.729Z,99.90
2019-05-10T07:05:20.997Z,99.90
2019-05-10T07:08:00.485Z,99.90
2019-05-10T07:10:28.386Z,99.90
2019-05-10T07:13:13.802Z,99.90
2019-05-10T07:15:42.370Z,99.90
2019-05-10T07:18:16.888Z,99.90
2019-05-10T07:20:46.410Z,99.90
2019-05-10T07:23:20.183Z,99.90
2019-05-10T07:25:53.427Z,99.90
2019-05-10T07:28:27.473Z,99.90
2019-05-10T07:31:01.043Z,99.90
2019-05-10T07:33:37.197Z,99.90
2019-05-10T07:36:14.692Z,99.90
2019-05-10T07:39:40.022Z,99.90
2019-05-10T07:42:17.986Z,99.90
2019-05-10T07:44:57.504Z,99.90
2019-05-10T07:47:46.514Z,99.90
2019-05-10T07:50:31.853Z,99.90
2019-05-10T07:53:08.063Z,99.10
2019-05-10T07:55:59.746Z,99.90
2019-05-10T07:58:24.373Z,99.40
2019-05-10T08:00:56.171Z,99.00
2019-05-10T08:03:29.806Z,99.80
2019-05-10T08:06:19.452Z,97.90
2019-05-10T08:09:01.046Z,96.40
2019-05-10T08:11:20.515Z,98.30
2019-05-10T08:13:50.568Z,97.20
2019-05-10T08:16:24.697Z,97.00
2019-05-10T08:18:55.705Z,98.20
2019-05-10T08:21:32.227Z,99.90
2019-05-10T08:24:13.321Z,99.80
2019-05-10T08:26:42.633Z,99.90
2019-05-10T08:29:22.584Z,99.90
2019-05-10T08:31:56.143Z,99.90
2019-05-10T08:34:35.555Z,99.90
2019-05-10T08:37:09.679Z,99.90
2019-05-10T08:39:51.386Z,97.70
2019-05-10T08:42:45.225Z,99.10
2019-05-10T08:45:19.644Z,99.10
2019-05-10T08:48:00.524Z,98.00
2019-05-10T08:50:48.838Z,98.60
2019-05-10T08:53:04.363Z,98.00
2019-05-10T08:55:38.857Z,96.50
2019-05-10T08:58:24.371Z,97.70
2019-05-10T09:01:16.430Z,96.90
2019-05-10T09:03:37.806Z,98.20
2019-05-10T09:06:12.002Z,99.20
2019-05-10T09:09:01.676Z,99.40
2019-05-10T09:11:32.821Z,99.70
2019-05-10T09:14:19.699Z,98.90
2019-05-10T09:16:43.311Z,99.10
2019-05-10T09:19:13.496Z,99.00
2019-05-10T09:21:49.498Z,98.80
2019-05-10T09:24:17.791Z,99.50
2019-05-10T09:26:56.939Z,99.30
2019-05-10T09:29:37.359Z,99.60
2019-05-10T09:32:12.697Z,97.40
2019-05-10T09:34:59.549Z,97.40
2019-05-10T09:37:22.808Z,99.00
2019-05-10T09:40:05.410Z,97.00
2019-05-10T09:42:43.175Z,97.90
2019-05-10T09:45:13.116Z,98.90
2019-05-10T09:47:53.445Z,99.50
2019-05-10T09:50:30.485Z,99.90
2019-05-10T09:53:07.341Z,99.90
2019-05-10T09:55:50.775Z,99.90
2019-05-10T09:58:48.150Z,99.90
2019-05-10T10:01:20.591Z,99.90
2019-05-10T10:03:47.658Z,99.90
2019-05-10T10:06:17.414Z,99.90
2019-05-10T10:08:53.266Z,99.90
2019-05-10T10:11:32.699Z,99.90
2019-05-10T10:14:02.161Z,99.90
2019-05-10T10:16:34.581Z,99.90
2019-05-10T10:19:09.375Z,99.90
2019-05-10T10:21:40.150Z,99.90
2019-05-10T10:24:17.331Z,99.90
2019-05-10T10:26:48.177Z,99.90
2019-05-10T10:29:19.301Z,99.90
2019-05-10T10:31:59.649Z,99.90
2019-05-10T10:34:46.653Z,99.90
2019-05-10T10:37:20.352Z,99.90
2019-05-10T10:39:49.725Z,99.90
2019-05-10T10:42:27.427Z,99.90
2019-05-10T10:45:08.241Z,99.90
2019-05-10T10:47:52.049Z,99.90
2019-05-10T10:50:44.043Z,99.90
2019-05-10T10:53:03.179Z,99.80
2019-05-10T10:55:40.396Z,99.70
2019-05-10T10:58:15.164Z,99.40
2019-05-10T11:00:48.251Z,99.70
2019-05-10T11:03:23.807Z,98.20
2019-05-10T11:06:00.335Z,97.20
2019-05-10T11:08:36.162Z,98.20
2019-05-10T11:11:04.495Z,98.50
2019-05-10T11:13:45.923Z,97.80
2019-05-10T11:16:27.973Z,98.80
2019-05-10T11:18:46.900Z,99.90
2019-05-10T11:21:35.323Z,99.10
2019-05-10T11:24:10.487Z,99.70
2019-05-10T11:26:44.261Z,99.90
2019-05-10T11:29:38.053Z,99.90
2019-05-10T11:32:31.673Z,99.90
2019-05-10T11:35:05.396Z,99.90
2019-05-10T11:37:54.274Z,99.90
2019-05-10T11:40:30.814Z,99.90
2019-05-10T11:43:01.441Z,99.90
2019-05-10T11:45:34.269Z,99.90
2019-05-10T11:48:10.815Z,99.90
2019-05-10T11:50:45.050Z,99.90
2019-05-10T11:53:26.158Z,99.90
2019-05-10T11:56:01.983Z,99.90
2019-05-10T11:58:49.177Z,99.90
2019-05-10T12:01:22.137Z,99.90
2019-05-10T12:03:50.533Z,99.90
2019-05-10T12:06:21.609Z,99.90
2019-05-10T12:11:40.798Z,99.90
2019-05-10T12:14:07.617Z,99.90
2019-05-10T12:17:14.255Z,99.90
2019-05-10T12:19:20.754Z,99.90
2019-05-10T12:21:52.566Z,99.90
2019-05-10T12:24:39.381Z,99.90
2019-05-10T12:26:16.485Z,99.90
2019-05-10T12:29:37.347Z,99.90
2019-05-10T12:32:02.290Z,99.90
2019-05-10T12:34:41.044Z,99.90
2019-05-10T12:37:27.927Z,99.90
2019-05-10T12:40:16.195Z,99.90
2019-05-10T12:42:55.385Z,99.90
2019-05-10T12:45:32.028Z,99.90
2019-05-10T12:48:07.617Z,99.90
2019-05-10T12:50:44.040Z,99.90
2019-05-10T12:53:18.383Z,99.90
2019-05-10T12:55:49.188Z,99.90
2019-05-10T12:58:56.349Z,99.90
2019-05-10T13:01:18.475Z,99.90
2019-05-10T13:03:54.039Z,99.90
2019-05-10T13:06:26.507Z,99.90
2019-05-10T13:09:01.056Z,99.90
2019-05-10T13:11:33.925Z,99.90
2019-05-10T13:14:09.530Z,99.90
2019-05-10T13:16:41.569Z,96.00
2019-05-10T13:19:20.100Z,96.80
2019-05-10T13:24:49.030Z,99.40
2019-05-10T13:27:20.343Z,99.00
2019-05-10T13:29:55.703Z,98.40
2019-05-10T13:32:28.938Z,98.40
2019-05-10T13:35:02.815Z,97.50
2019-05-10T13:37:36.591Z,98.30
2019-05-10T13:40:19.952Z,98.20
2019-05-10T13:42:56.317Z,98.50
2019-05-10T13:48:26.856Z,99.90
2019-05-10T13:50:57.291Z,99.60
2019-05-10T13:53:31.684Z,98.90
2019-05-10T13:56:04.227Z,99.30
2019-05-10T13:58:33.938Z,99.80
2019-05-10T14:01:06.501Z,97.50
2019-05-10T14:03:45.271Z,97.30
2019-05-10T14:06:13.303Z,97.00
2019-05-10T14:08:50.373Z,96.80
2019-05-10T14:11:34.259Z,97.10
2019-05-10T14:14:14.514Z,95.70
2019-05-10T14:16:49.078Z,96.90
2019-05-10T14:19:36.144Z,96.30
2019-05-10T14:22:04.062Z,96.10
2019-05-10T14:24:31.077Z,97.20
2019-05-10T14:27:08.432Z,97.70
2019-05-10T14:30:19.712Z,96.00
2019-05-10T14:32:30.162Z,95.40
2019-05-10T14:35:01.571Z,95.20
2019-05-10T14:37:47.802Z,94.50
2019-05-10T14:40:30.976Z,92.80
2019-05-10T14:43:02.711Z,92.80
2019-05-10T14:45:39.301Z,91.70
2019-05-10T14:48:15.120Z,91.40
2019-05-10T14:50:48.709Z,91.30
2019-05-10T14:53:25.527Z,91.40
2019-05-10T14:55:57.310Z,91.90
2019-05-10T14:58:35.531Z,92.00
2019-05-10T15:01:02.799Z,92.30
2019-05-10T15:03:45.622Z,92.60
2019-05-10T15:06:51.692Z,91.60
2019-05-10T15:08:38.334Z,91.50
2019-05-10T15:11:10.832Z,92.20
2019-05-10T15:13:49.451Z,92.30
2019-05-10T15:16:27.064Z,91.20
2019-05-10T15:18:54.016Z,91.60
2019-05-10T15:21:29.248Z,92.00
2019-05-10T15:24:03.113Z,92.80
2019-05-10T15:26:46.279Z,92.10
2019-05-10T15:29:28.869Z,92.60
2019-05-10T15:31:54.962Z,91.60
2019-05-10T15:34:24.669Z,91.40
2019-05-10T15:37:17.818Z,92.00
2019-05-10T15:39:48.610Z,93.10
2019-05-10T15:42:35.980Z,93.40
2019-05-10T15:44:53.865Z,93.60
2019-05-10T15:47:49.922Z,93.70
2019-05-10T15:50:12.754Z,93.50
2019-05-10T15:52:52.938Z,93.70
2019-05-10T15:55:26.837Z,94.00
2019-05-10T15:58:00.258Z,94.30
2019-05-10T16:00:39.076Z,94.90
2019-05-10T16:03:06.263Z,94.80
2019-05-10T16:05:43.407Z,94.90
2019-05-10T16:08:13.493Z,95.10
2019-05-10T16:10:48.344Z,95.40
2019-05-10T16:13:23.585Z,95.60
2019-05-10T16:15:57.823Z,95.10
2019-05-10T16:18:39.613Z,95.20
2019-05-10T16:21:03.303Z,95.40
2019-05-10T16:23:41.422Z,95.30
2019-05-10T16:26:17.391Z,95.40
2019-05-10T16:28:53.129Z,95.50
2019-05-10T16:31:32.171Z,95.70
2019-05-10T16:34:02.502Z,96.30
2019-05-10T16:36:41.964Z,96.20
2019-05-10T16:39:14.890Z,95.60
2019-05-10T16:41:54.631Z,95.70
2019-05-10T16:44:24.322Z,95.70
2019-05-10T16:46:59.482Z,96.40
2019-05-10T16:49:34.965Z,96.60
2019-05-10T16:52:10.086Z,97.20
2019-05-10T16:54:47.414Z,97.40
2019-05-10T16:57:18.605Z,98.00
2019-05-10T16:59:54.658Z,97.90
2019-05-10T17:02:23.683Z,98.00
2019-05-10T17:05:00.999Z,98.60
2019-05-10T17:07:33.048Z,98.70
2019-05-10T17:10:04.104Z,99.00
2019-05-10T17:12:59.692Z,99.00
2019-05-10T17:15:28.673Z,99.00
2019-05-10T17:18:14.853Z,99.10
2019-05-10T17:20:45.278Z,99.40
2019-05-10T17:23:18.053Z,99.50
2019-05-10T17:25:51.768Z,99.90
2019-05-10T17:28:35.418Z,99.90
2019-05-10T17:31:28.316Z,99.90
2019-05-10T17:33:53.815Z,99.90
2019-05-10T17:36:24.817Z,99.90
2019-05-10T17:38:56.102Z,99.90
2019-05-10T17:41:32.105Z,99.90
2019-05-10T17:44:01.835Z,99.90
2019-05-10T17:46:31.598Z,99.90
2019-05-10T17:49:02.423Z,99.90
2019-05-10T17:51:39.313Z,99.90
2019-05-10T17:54:16.522Z,99.90
2019-05-10T17:56:55.130Z,99.90
2019-05-10T17:59:22.913Z,99.90
2019-05-10T18:02:02.482Z,99.90
2019-05-10T18:04:34.344Z,99.90
2019-05-10T18:07:03.985Z,99.90
2019-05-10T18:09:35.204Z,99.90
2019-05-10T18:12:05.961Z,99.90
2019-05-10T18:14:38.093Z,99.90
2019-05-10T18:17:07.370Z,99.90
2019-05-10T18:19:39.410Z,99.90
2019-05-10T18:22:10.243Z,99.90
2019-05-10T18:24:42.217Z,99.90
2019-05-10T18:27:11.050Z,99.90
2019-05-10T18:29:40.702Z,99.90
2019-05-10T18:32:11.159Z,99.90
2019-05-10T18:34:42.424Z,99.90
2019-05-10T18:37:15.916Z,99.90
2019-05-10T18:39:47.400Z,99.90
2019-05-10T18:42:18.902Z,99.90
2019-05-10T18:44:52.042Z,99.90
2019-05-10T18:47:17.694Z,99.90
2019-05-10T18:49:47.386Z,99.90
2019-05-10T18:52:16.900Z,99.90
2019-05-10T18:54:46.418Z,99.90
2019-05-10T18:57:19.249Z,99.90
2019-05-10T18:59:49.691Z,99.90
2019-05-10T19:02:55.049Z,99.90
2019-05-10T19:04:54.285Z,99.90
2019-05-10T19:07:24.089Z,99.90
2019-05-10T19:09:56.232Z,99.90
2019-05-10T19:12:38.369Z,99.90
2019-05-10T19:15:15.163Z,99.90
2019-05-10T19:18:12.141Z,99.90
2019-05-10T19:20:53.450Z,99.90
2019-05-10T19:23:34.208Z,99.90
2019-05-10T19:26:29.651Z,99.90
2019-05-10T19:29:10.572Z,99.90
2019-05-10T19:31:40.267Z,99.90
2019-05-10T19:42:37.091Z,99.90
2019-05-10T20:00:30.525Z,99.90
2019-05-10T20:03:09.715Z,99.90
2019-05-10T20:06:03.406Z,99.90
2019-05-10T20:08:37.559Z,99.90
2019-05-10T20:11:19.432Z,99.90
2019-05-10T20:16:00.685Z,99.90
2019-05-10T20:17:23.009Z,99.90
2019-05-10T20:19:57.469Z,99.90
2019-05-10T20:22:36.810Z,99.90
2019-05-10T20:26:26.893Z,99.90
2019-05-10T20:28:19.567Z,99.90
2019-05-10T20:30:40.764Z,99.90
2019-05-10T20:33:52.335Z,99.90
2019-05-10T20:36:46.328Z,99.90
2019-05-10T20:50:38.743Z,99.90
2019-05-10T20:53:41.159Z,99.90
2019-05-10T20:55:50.956Z,99.90
2019-05-10T20:58:50.579Z,99.90
2019-05-10T21:01:25.007Z,99.90
2019-05-10T21:04:05.627Z,99.90
2019-05-10T21:06:57.880Z,99.90
2019-05-10T21:09:11.874Z,99.90
2019-05-10T21:11:53.309Z,99.90
2019-05-10T21:14:41.866Z,99.90
2019-05-10T21:17:40.353Z,99.90
2019-05-10T21:19:50.117Z,99.90
2019-05-10T21:22:25.935Z,99.90
2019-05-10T21:24:58.521Z,99.90
2019-05-10T21:27:35.053Z,99.90
2019-05-10T21:30:08.161Z,99.90
2019-05-10T21:32:39.723Z,99.90
2019-05-10T21:35:14.301Z,99.90
2019-05-10T21:37:58.963Z,99.90
2019-05-10T21:40:25.183Z,99.90
2019-05-10T21:43:01.707Z,99.90
2019-05-10T21:45:34.376Z,99.90
2019-05-10T21:48:08.126Z,99.90
2019-05-10T21:50:39.265Z,99.90
2019-05-10T21:53:16.250Z,99.90
2019-05-10T21:55:47.735Z,99.90
2019-05-10T21:58:22.914Z,99.90
2019-05-10T22:00:54.837Z,99.90
2019-05-10T22:03:24.461Z,99.90
2019-05-10T22:05:55.880Z,99.90
2019-05-10T22:08:31.190Z,99.90
2019-05-10T22:11:04.320Z,99.90
2019-05-10T22:17:50.070Z,99.90
2019-05-10T22:20:33.970Z,99.90
2019-05-10T22:23:09.710Z,99.90
2019-05-10T22:25:44.430Z,99.90
2019-05-10T22:28:18.630Z,99.90
2019-05-10T22:30:56.287Z,99.90
2019-05-10T22:33:33.288Z,99.90
2019-05-10T22:36:25.705Z,99.90
2019-05-10T22:39:06.898Z,99.90
2019-05-10T22:41:38.996Z,99.90
2019-05-10T22:44:14.506Z,99.90
2019-05-10T22:46:59.391Z,99.90
2019-05-10T22:49:32.543Z,99.90
2019-05-10T22:52:19.033Z,99.90
2019-05-10T22:55:19.602Z,99.90
2019-05-10T22:57:37.290Z,99.90
2019-05-10T23:00:09.386Z,99.90
2019-05-10T23:02:50.631Z,99.90
2019-05-10T23:05:36.565Z,99.90
2019-05-10T23:08:04.279Z,99.90
2019-05-10T23:10:48.430Z,99.90
2019-05-10T23:20:49.452Z,99.90
2019-05-10T23:22:28.938Z,99.90
2019-05-10T23:24:16.840Z,99.90
2019-05-10T23:26:02.587Z,99.90
2019-05-10T23:28:34.720Z,99.90
2019-05-10T23:31:05.735Z,99.90
2019-05-10T23:33:36.117Z,99.90
2019-05-10T23:36:10.894Z,99.90
2019-05-10T23:38:52.155Z,99.90
2019-05-10T23:41:31.934Z,99.90
2019-05-10T23:44:08.509Z,99.90
2019-05-10T23:46:49.295Z,99.90
2019-05-10T23:49:33.023Z,99.90
2019-05-10T23:52:18.765Z,99.90
2019-05-10T23:54:51.571Z,99.90
2019-05-10T23:57:33.672Z,99.90
